Time,TemperatureF,DewpointF,PressureIn,WindDirection,WindDirectionDegrees,WindSpeedMPH,WindSpeedGustMPH,Humidity,HourlyPrecipIn,Conditions,Clouds,dailyrainin,SolarRadiationWatts/m^2,SoftwareType,DateUTC
2013-05-24 00:01:00,61.0,54.0,-100.00,WNW,294,3.0,6.0,79,0.00,,,0.34,0.000000,,2013-05-24 04:01:00,
2013-05-24 00:23:00,61.0,54.0,-100.00,WNW,294,3.0,6.0,79,0.00,,,0.34,0.000000,,2013-05-24 04:23:00,
2013-05-24 00:33:00,61.0,54.0,-100.00,WNW,294,3.0,6.0,79,0.00,,,0.34,0.000000,,2013-05-24 04:33:00,
2013-05-24 00:42:00,61.0,54.0,-100.00,WNW,294,3.0,6.0,79,0.00,,,0.34,0.000000,,2013-05-24 04:42:00,
2013-05-24 00:53:00,61.0,54.0,-100.00,WNW,294,3.0,6.0,79,0.00,,,0.34,0.000000,,2013-05-24 04:53:00,
2013-05-24 01:01:00,61.0,54.0,-100.00,WSW,240,3.0,11.0,79,0.00,,,0.34,0.000000,,2013-05-24 05:01:00,
2013-05-24 01:22:00,61.0,54.0,-100.00,WSW,240,3.0,11.0,79,0.00,,,0.34,0.000000,,2013-05-24 05:22:00,
2013-05-24 01:32:00,61.0,54.0,-100.00,WSW,240,3.0,11.0,79,0.00,,,0.34,0.000000,,2013-05-24 05:32:00,
2013-05-24 01:42:00,61.0,54.0,-100.00,WSW,240,3.0,11.0,79,0.00,,,0.34,0.000000,,2013-05-24 05:42:00,
2013-05-24 01:52:00,61.0,54.0,-100.00,WSW,240,3.0,11.0,79,0.00,,,0.34,0.000000,,2013-05-24 05:52:00,
2013-05-24 02:01:00,60.0,54.0,-100.00,SSW,208,3.0,10.0,80,0.00,,,0.34,0.000000,,2013-05-24 06:01:00,
2013-05-24 02:22:00,60.0,54.0,-100.00,SSW,208,3.0,10.0,80,0.00,,,0.34,0.000000,,2013-05-24 06:22:00,
2013-05-24 02:32:00,60.0,54.0,-100.00,SSW,208,3.0,10.0,80,0.00,,,0.34,0.000000,,2013-05-24 06:32:00,
2013-05-24 02:42:00,60.0,54.0,-100.00,SSW,208,3.0,10.0,80,0.00,,,0.34,0.000000,,2013-05-24 06:42:00,
2013-05-24 02:52:00,60.0,54.0,-100.00,SSW,208,3.0,10.0,80,0.00,,,0.34,0.000000,,2013-05-24 06:52:00,
2013-05-24 03:01:00,59.0,52.0,-100.00,SW,218,3.0,11.0,77,0.00,,,0.34,0.000000,,2013-05-24 07:01:00,
2013-05-24 03:22:00,59.0,52.0,-100.00,SW,218,3.0,11.0,77,0.00,,,0.34,0.000000,,2013-05-24 07:22:00,
2013-05-24 03:32:00,59.0,52.0,-100.00,SW,218,3.0,11.0,77,0.00,,,0.34,0.000000,,2013-05-24 07:32:00,
2013-05-24 03:42:00,59.0,52.0,-100.00,SW,218,3.0,11.0,77,0.00,,,0.34,0.000000,,2013-05-24 07:42:00,
2013-05-24 03:52:00,59.0,52.0,-100.00,SW,218,3.0,11.0,77,0.00,,,0.34,0.000000,,2013-05-24 07:52:00,
2013-05-24 04:01:00,58.0,50.0,-100.00,SSE,164,2.0,8.0,76,0.00,,,0.34,0.000000,,2013-05-24 08:01:00,
2013-05-24 04:22:00,58.0,50.0,-100.00,SSE,164,2.0,8.0,76,0.00,,,0.34,0.000000,,2013-05-24 08:22:00,
2013-05-24 04:33:00,58.0,50.0,-100.00,SSE,164,2.0,8.0,76,0.00,,,0.34,0.000000,,2013-05-24 08:33:00,
2013-05-24 04:42:00,58.0,50.0,-100.00,SSE,164,2.0,8.0,76,0.00,,,0.34,0.000000,,2013-05-24 08:42:00,
2013-05-24 04:52:00,58.0,50.0,-100.00,SSE,164,2.0,8.0,76,0.00,,,0.34,0.000000,,2013-05-24 08:52:00,
2013-05-24 05:01:00,57.0,52.0,-100.00,SSW,205,3.0,7.0,82,0.00,,,0.34,0.000000,,2013-05-24 09:01:00,
2013-05-24 05:22:00,57.0,52.0,-100.00,SSW,205,3.0,7.0,82,0.00,,,0.34,0.000000,,2013-05-24 09:22:00,
2013-05-24 05:33:00,57.0,52.0,-100.00,SSW,205,3.0,7.0,82,0.00,,,0.34,0.000000,,2013-05-24 09:33:00,
2013-05-24 05:42:00,57.0,52.0,-100.00,SSW,205,3.0,7.0,82,0.00,,,0.34,0.000000,,2013-05-24 09:42:00,
2013-05-24 05:53:00,57.0,52.0,-100.00,SSW,205,3.0,7.0,82,0.00,,,0.34,0.000000,,2013-05-24 09:53:00,
2013-05-24 06:01:00,55.0,47.0,-100.00,NE,54,5.0,16.0,75,0.00,,,0.34,0.000000,,2013-05-24 10:01:00,
2013-05-24 06:23:00,55.0,47.0,-100.00,NE,54,5.0,16.0,75,0.00,,,0.34,0.000000,,2013-05-24 10:23:00,
2013-05-24 06:33:00,55.0,47.0,-100.00,NE,54,5.0,16.0,75,0.00,,,0.34,0.000000,,2013-05-24 10:33:00,
2013-05-24 06:42:00,55.0,47.0,-100.00,NE,54,5.0,16.0,75,0.00,,,0.34,0.000000,,2013-05-24 10:42:00,
2013-05-24 06:53:00,55.0,47.0,-100.00,NE,54,5.0,16.0,75,0.00,,,0.34,0.000000,,2013-05-24 10:53:00,
2013-05-24 07:01:00,51.0,43.0,-100.00,North,354,6.0,17.0,75,0.00,,,0.33,18.000000,,2013-05-24 11:01:00,
2013-05-24 07:22:00,51.0,43.0,-100.00,North,354,6.0,17.0,75,0.00,,,0.33,18.000000,,2013-05-24 11:22:00,
2013-05-24 07:32:00,51.0,43.0,-100.00,North,354,6.0,17.0,75,0.00,,,0.33,18.000000,,2013-05-24 11:32:00,
2013-05-24 07:42:00,51.0,43.0,-100.00,North,354,6.0,17.0,75,0.00,,,0.33,18.000000,,2013-05-24 11:42:00,
2013-05-24 07:52:00,51.0,43.0,-100.00,North,354,6.0,17.0,75,0.00,,,0.33,18.000000,,2013-05-24 11:52:00,
2013-05-24 08:01:00,51.0,43.0,-100.00,NNW,339,4.0,14.0,75,0.00,,,0.32,144.000000,,2013-05-24 12:01:00,
2013-05-24 08:22:00,51.0,43.0,-100.00,NNW,339,4.0,14.0,75,0.00,,,0.32,144.000000,,2013-05-24 12:22:00,
2013-05-24 08:33:00,51.0,43.0,-100.00,NNW,339,4.0,14.0,75,0.00,,,0.32,144.000000,,2013-05-24 12:33:00,
2013-05-24 08:42:00,51.0,43.0,-100.00,NNW,339,4.0,14.0,75,0.00,,,0.32,144.000000,,2013-05-24 12:42:00,
2013-05-24 08:52:00,51.0,43.0,-100.00,NNW,339,4.0,14.0,75,0.00,,,0.32,144.000000,,2013-05-24 12:52:00,
2013-05-24 09:01:00,49.0,41.0,-100.00,North,8,5.0,12.0,73,0.00,,,0.32,119.000000,,2013-05-24 13:01:00,
2013-05-24 09:22:00,49.0,41.0,-100.00,North,8,5.0,12.0,73,0.00,,,0.32,119.000000,,2013-05-24 13:22:00,
2013-05-24 09:32:00,49.0,41.0,-100.00,North,8,5.0,12.0,73,0.00,,,0.32,119.000000,,2013-05-24 13:32:00,
2013-05-24 09:42:00,49.0,41.0,-100.00,North,8,5.0,12.0,73,0.00,,,0.32,119.000000,,2013-05-24 13:42:00,
2013-05-24 09:52:00,49.0,41.0,-100.00,North,8,5.0,12.0,73,0.00,,,0.32,119.000000,,2013-05-24 13:52:00,
2013-05-24 10:01:00,49.0,39.0,-100.00,NE,45,6.0,16.0,67,0.00,,,0.32,216.000000,,2013-05-24 14:01:00,
2013-05-24 10:22:00,49.0,39.0,-100.00,NE,45,6.0,16.0,67,0.00,,,0.32,216.000000,,2013-05-24 14:22:00,
2013-05-24 10:32:00,49.0,39.0,-100.00,NE,45,6.0,16.0,67,0.00,,,0.32,216.000000,,2013-05-24 14:32:00,
2013-05-24 10:42:00,49.0,39.0,-100.00,NE,45,6.0,16.0,67,0.00,,,0.32,216.000000,,2013-05-24 14:42:00,
2013-05-24 10:52:00,49.0,39.0,-100.00,NE,45,6.0,16.0,67,0.00,,,0.32,216.000000,,2013-05-24 14:52:00,
2013-05-24 11:01:00,51.0,42.0,-100.00,NNE,20,4.0,12.0,70,0.00,,,0.32,271.000000,,2013-05-24 15:01:00,
2013-05-24 11:22:00,51.0,42.0,-100.00,NNE,20,4.0,12.0,70,0.00,,,0.32,271.000000,,2013-05-24 15:22:00,
2013-05-24 11:33:00,51.0,42.0,-100.00,NNE,20,4.0,12.0,70,0.00,,,0.32,271.000000,,2013-05-24 15:33:00,
2013-05-24 11:43:00,51.0,42.0,-100.00,NNE,20,4.0,12.0,70,0.00,,,0.32,271.000000,,2013-05-24 15:43:00,
2013-05-24 11:52:00,51.0,42.0,-100.00,NNE,20,4.0,12.0,70,0.00,,,0.32,271.000000,,2013-05-24 15:52:00,
2013-05-24 12:01:00,51.0,39.0,-100.00,North,357,5.0,12.0,63,0.00,,,0.32,403.000000,,2013-05-24 16:01:00,
2013-05-24 12:22:00,51.0,39.0,-100.00,North,357,5.0,12.0,63,0.00,,,0.32,403.000000,,2013-05-24 16:22:00,
2013-05-24 12:33:00,51.0,39.0,-100.00,North,357,5.0,12.0,63,0.00,,,0.32,403.000000,,2013-05-24 16:33:00,
2013-05-24 12:42:00,51.0,39.0,-100.00,North,357,5.0,12.0,63,0.00,,,0.32,403.000000,,2013-05-24 16:42:00,
2013-05-24 12:52:00,51.0,39.0,-100.00,North,357,5.0,12.0,63,0.00,,,0.32,403.000000,,2013-05-24 16:52:00,
2013-05-24 13:01:00,52.0,40.0,-100.00,NNW,339,5.0,13.0,63,0.00,,,0.32,526.000000,,2013-05-24 17:01:00,
2013-05-24 13:22:00,52.0,40.0,-100.00,NNW,339,5.0,13.0,63,0.00,,,0.32,526.000000,,2013-05-24 17:22:00,
2013-05-24 13:32:00,52.0,40.0,-100.00,NNW,339,5.0,13.0,63,0.00,,,0.32,526.000000,,2013-05-24 17:32:00,
2013-05-24 13:42:00,52.0,40.0,-100.00,NNW,339,5.0,13.0,63,0.00,,,0.32,526.000000,,2013-05-24 17:42:00,
2013-05-24 13:52:00,52.0,40.0,-100.00,NNW,339,5.0,13.0,63,0.00,,,0.32,526.000000,,2013-05-24 17:52:00,
2013-05-24 14:01:00,55.0,41.0,-100.00,NNW,342,5.0,13.0,58,0.00,,,0.32,769.000000,,2013-05-24 18:01:00,
2013-05-24 14:22:00,55.0,41.0,-100.00,NNW,342,5.0,13.0,58,0.00,,,0.32,769.000000,,2013-05-24 18:22:00,
2013-05-24 14:32:00,55.0,41.0,-100.00,NNW,342,5.0,13.0,58,0.00,,,0.32,769.000000,,2013-05-24 18:32:00,
2013-05-24 14:42:00,55.0,41.0,-100.00,NNW,342,5.0,13.0,58,0.00,,,0.32,769.000000,,2013-05-24 18:42:00,
2013-05-24 14:52:00,55.0,41.0,-100.00,NNW,342,5.0,13.0,58,0.00,,,0.32,769.000000,,2013-05-24 18:52:00,
2013-05-24 15:01:00,53.0,36.0,-100.00,North,354,8.0,21.0,52,0.00,,,0.32,1084.000000,,2013-05-24 19:01:00,
2013-05-24 15:22:00,53.0,36.0,-100.00,North,354,8.0,21.0,52,0.00,,,0.32,1084.000000,,2013-05-24 19:22:00,
2013-05-24 15:32:00,53.0,36.0,-100.00,North,354,8.0,21.0,52,0.00,,,0.32,1084.000000,,2013-05-24 19:32:00,
2013-05-24 15:42:00,53.0,36.0,-100.00,North,354,8.0,21.0,52,0.00,,,0.32,1084.000000,,2013-05-24 19:42:00,
2013-05-24 15:52:00,53.0,36.0,-100.00,North,354,8.0,21.0,52,0.00,,,0.32,1084.000000,,2013-05-24 19:52:00,
2013-05-24 16:01:00,55.0,35.0,-100.00,NNW,343,6.0,18.0,47,0.00,,,0.17,884.000000,,2013-05-24 20:01:00,
2013-05-24 16:22:00,55.0,35.0,-100.00,NNW,343,6.0,18.0,47,0.00,,,0.17,884.000000,,2013-05-24 20:22:00,
2013-05-24 16:32:00,55.0,35.0,-100.00,NNW,343,6.0,18.0,47,0.00,,,0.17,884.000000,,2013-05-24 20:32:00,
2013-05-24 16:42:00,55.0,35.0,-100.00,NNW,343,6.0,18.0,47,0.00,,,0.17,884.000000,,2013-05-24 20:42:00,
2013-05-24 16:52:00,55.0,35.0,-100.00,NNW,343,6.0,18.0,47,0.00,,,0.17,884.000000,,2013-05-24 20:52:00,
2013-05-24 17:01:00,54.0,33.0,-100.00,NNW,341,8.0,22.0,44,0.00,,,0.17,841.000000,,2013-05-24 21:01:00,
2013-05-24 17:22:00,54.0,33.0,-100.00,NNW,341,8.0,22.0,44,0.00,,,0.17,841.000000,,2013-05-24 21:22:00,
2013-05-24 17:33:00,54.0,33.0,-100.00,NNW,341,8.0,22.0,44,0.00,,,0.17,841.000000,,2013-05-24 21:33:00,
2013-05-24 17:43:00,54.0,33.0,-100.00,NNW,341,8.0,22.0,44,0.00,,,0.17,841.000000,,2013-05-24 21:43:00,
2013-05-24 17:53:00,54.0,33.0,-100.00,NNW,341,8.0,22.0,44,0.00,,,0.17,841.000000,,2013-05-24 21:53:00,
2013-05-24 18:01:00,53.0,31.0,-100.00,WNW,299,5.0,20.0,43,0.00,,,0.17,616.000000,,2013-05-24 22:01:00,
2013-05-24 18:22:00,53.0,31.0,-100.00,WNW,299,5.0,20.0,43,0.00,,,0.17,616.000000,,2013-05-24 22:22:00,
2013-05-24 18:33:00,53.0,31.0,-100.00,WNW,299,5.0,20.0,43,0.00,,,0.17,616.000000,,2013-05-24 22:33:00,
2013-05-24 18:42:00,53.0,31.0,-100.00,WNW,299,5.0,20.0,43,0.00,,,0.17,616.000000,,2013-05-24 22:42:00,
2013-05-24 18:52:00,53.0,31.0,-100.00,WNW,299,5.0,20.0,43,0.00,,,0.17,616.000000,,2013-05-24 22:52:00,
2013-05-24 19:01:00,50.0,30.0,-100.00,NNW,331,5.0,21.0,46,0.00,,,0.04,270.000000,,2013-05-24 23:01:00,
2013-05-24 19:22:00,50.0,30.0,-100.00,NNW,331,5.0,21.0,46,0.00,,,0.04,270.000000,,2013-05-24 23:22:00,
2013-05-24 19:32:00,50.0,30.0,-100.00,NNW,331,5.0,21.0,46,0.00,,,0.04,270.000000,,2013-05-24 23:32:00,
2013-05-24 19:42:00,50.0,30.0,-100.00,NNW,331,5.0,21.0,46,0.00,,,0.04,270.000000,,2013-05-24 23:42:00,
2013-05-24 19:52:00,50.0,30.0,-100.00,NNW,331,5.0,21.0,46,0.00,,,0.04,270.000000,,2013-05-24 23:52:00,
2013-05-24 20:01:00,47.0,32.0,-100.00,NW,321,4.0,14.0,55,0.00,,,0.00,35.000000,,2013-05-25 00:01:00,
2013-05-24 20:22:00,47.0,32.0,-100.00,NW,321,4.0,14.0,55,0.00,,,0.00,35.000000,,2013-05-25 00:22:00,
2013-05-24 20:32:00,47.0,32.0,-100.00,NW,321,4.0,14.0,55,0.00,,,0.00,35.000000,,2013-05-25 00:32:00,
2013-05-24 20:42:00,47.0,32.0,-100.00,NW,321,4.0,14.0,55,0.00,,,0.00,35.000000,,2013-05-25 00:42:00,
2013-05-24 20:52:00,47.0,32.0,-100.00,NW,321,4.0,14.0,55,0.00,,,0.00,35.000000,,2013-05-25 00:52:00,
2013-05-24 21:01:00,46.0,31.0,-100.00,NW,310,4.0,13.0,56,0.00,,,0.00,6.000000,,2013-05-25 01:01:00,
2013-05-24 21:22:00,46.0,31.0,-100.00,NW,310,4.0,13.0,56,0.00,,,0.00,6.000000,,2013-05-25 01:22:00,
2013-05-24 21:32:00,46.0,31.0,-100.00,NW,310,4.0,13.0,56,0.00,,,0.00,6.000000,,2013-05-25 01:32:00,
2013-05-24 21:42:00,46.0,31.0,-100.00,NW,310,4.0,13.0,56,0.00,,,0.00,6.000000,,2013-05-25 01:42:00,
2013-05-24 21:52:00,46.0,31.0,-100.00,NW,310,4.0,13.0,56,0.00,,,0.00,6.000000,,2013-05-25 01:52:00,
2013-05-24 22:01:00,46.0,32.0,-100.00,WNW,299,5.0,17.0,58,0.00,,,0.00,0.000000,,2013-05-25 02:01:00,
2013-05-24 22:22:00,46.0,32.0,-100.00,WNW,299,5.0,17.0,58,0.00,,,0.00,0.000000,,2013-05-25 02:22:00,
2013-05-24 22:32:00,46.0,32.0,-100.00,WNW,299,5.0,17.0,58,0.00,,,0.00,0.000000,,2013-05-25 02:32:00,
2013-05-24 22:42:00,46.0,32.0,-100.00,WNW,299,5.0,17.0,58,0.00,,,0.00,0.000000,,2013-05-25 02:42:00,
2013-05-24 22:52:00,46.0,32.0,-100.00,WNW,299,5.0,17.0,58,0.00,,,0.00,0.000000,,2013-05-25 02:52:00,
2013-05-24 23:01:00,46.0,33.0,-100.00,SE,141,5.0,15.0,60,0.00,,,0.00,0.000000,,2013-05-25 03:01:00,
2013-05-24 23:22:00,46.0,33.0,-100.00,SE,141,5.0,15.0,60,0.00,,,0.00,0.000000,,2013-05-25 03:22:00,
2013-05-24 23:33:00,46.0,33.0,-100.00,SE,141,5.0,15.0,60,0.00,,,0.00,0.000000,,2013-05-25 03:33:00,
2013-05-24 23:43:00,46.0,33.0,-100.00,SE,141,5.0,15.0,60,0.00,,,0.00,0.000000,,2013-05-25 03:43:00,
2013-05-24 23:53:00,46.0,33.0,-100.00,SE,141,5.0,15.0,60,0.00,,,0.00,0.000000,,2013-05-25 03:53:00,